createdAt,value
2022-10-29T00:00:13.024Z,1013.22
2022-10-29T00:01:13.112Z,1013.29
2022-10-29T00:02:12.996Z,1013.33
2022-10-29T00:03:13.074Z,1013.40
2022-10-29T00:04:12.979Z,1013.40
2022-10-29T00:05:12.972Z,1013.45
2022-10-29T00:06:12.951Z,1013.46
2022-10-29T00:07:12.961Z,1013.47
2022-10-29T00:08:12.975Z,1013.41
2022-10-29T00:09:12.935Z,1013.42
2022-10-29T00:10:12.917Z,1013.45
2022-10-29T00:11:12.912Z,1013.47
2022-10-29T00:12:12.949Z,1013.46
2022-10-29T00:13:12.906Z,1013.43
2022-10-29T00:14:12.873Z,1013.38
2022-10-29T00:15:12.863Z,1013.37
2022-10-29T00:16:12.840Z,1013.38
2022-10-29T00:17:12.851Z,1013.39
2022-10-29T00:18:12.832Z,1013.39
2022-10-29T00:19:12.801Z,1013.37
2022-10-29T00:20:12.821Z,1013.37
2022-10-29T00:21:12.804Z,1013.37
2022-10-29T00:22:12.775Z,1013.41
2022-10-29T00:23:12.767Z,1013.42
2022-10-29T00:24:12.768Z,1013.40
2022-10-29T00:25:12.740Z,1013.41
2022-10-29T00:26:12.731Z,1013.44
2022-10-29T00:27:12.741Z,1013.43
2022-10-29T00:28:12.715Z,1013.42
2022-10-29T00:29:12.705Z,1013.46
2022-10-29T00:30:12.679Z,1013.46
2022-10-29T00:31:12.713Z,1013.45
2022-10-29T00:32:12.741Z,1013.46
2022-10-29T00:33:12.683Z,1013.48
2022-10-29T00:34:12.650Z,1013.52
2022-10-29T00:35:12.633Z,1013.52
2022-10-29T00:36:12.624Z,1013.55
2022-10-29T00:37:12.614Z,1013.61
2022-10-29T00:38:12.599Z,1013.63
2022-10-29T00:39:12.585Z,1013.58
2022-10-29T00:40:12.565Z,1013.63
2022-10-29T00:41:12.572Z,1013.63
2022-10-29T00:42:12.564Z,1013.70
2022-10-29T00:43:12.537Z,1013.74
2022-10-29T00:44:12.531Z,1013.79
2022-10-29T00:45:12.523Z,1013.83
2022-10-29T00:46:12.504Z,1013.82
2022-10-29T00:47:12.531Z,1013.81
2022-10-29T00:48:12.482Z,1013.83
2022-10-29T00:49:12.473Z,1013.81
2022-10-29T00:50:12.459Z,1013.79
2022-10-29T00:51:12.450Z,1013.71
2022-10-29T00:52:12.439Z,1013.70
2022-10-29T00:53:12.464Z,1013.67
2022-10-29T00:54:12.419Z,1013.69
2022-10-29T00:55:12.402Z,1013.72
2022-10-29T00:56:12.397Z,1013.71
2022-10-29T00:57:12.380Z,1013.69
2022-10-29T00:58:12.395Z,1013.74
2022-10-29T00:59:12.362Z,1013.78
2022-10-29T01:00:12.356Z,1013.74
2022-10-29T01:01:12.435Z,1013.73
2022-10-29T01:02:12.456Z,1013.68
2022-10-29T01:03:12.472Z,1013.66
2022-10-29T01:04:12.316Z,1013.66
2022-10-29T01:05:12.290Z,1013.62
2022-10-29T01:06:12.276Z,1013.62
2022-10-29T01:07:12.276Z,1013.61
2022-10-29T01:08:12.749Z,1013.60
2022-10-29T01:09:13.215Z,1013.55
2022-10-29T01:10:12.237Z,1013.52
2022-10-29T01:11:12.227Z,1013.53
2022-10-29T01:12:12.232Z,1013.56
2022-10-29T01:13:12.385Z,1013.62
2022-10-29T01:14:12.205Z,1013.64
2022-10-29T01:15:12.184Z,1013.65
2022-10-29T01:16:12.176Z,1013.73
2022-10-29T01:17:12.163Z,1013.75
2022-10-29T01:18:12.152Z,1013.68
2022-10-29T01:19:12.817Z,1013.70
2022-10-29T01:20:12.125Z,1013.70
2022-10-29T01:21:12.117Z,1013.71
2022-10-29T01:22:12.099Z,1013.65
2022-10-29T01:23:12.094Z,1013.68
2022-10-29T01:24:12.094Z,1013.70
2022-10-29T01:25:12.077Z,1013.68
2022-10-29T01:26:12.094Z,1013.67
2022-10-29T01:27:12.054Z,1013.70
2022-10-29T01:28:12.038Z,1013.75
2022-10-29T01:29:12.029Z,1013.72
2022-10-29T01:30:12.045Z,1013.72
2022-10-29T01:31:12.019Z,1013.72
2022-10-29T01:32:11.993Z,1013.62
2022-10-29T01:33:11.998Z,1013.64
2022-10-29T01:34:11.967Z,1013.66
2022-10-29T01:35:11.954Z,1013.66
2022-10-29T01:36:11.963Z,1013.69
2022-10-29T01:37:11.947Z,1013.62
2022-10-29T01:38:11.929Z,1013.70
2022-10-29T01:39:11.909Z,1013.68
2022-10-29T01:40:11.909Z,1013.61
2022-10-29T01:41:11.897Z,1013.66
2022-10-29T01:42:11.899Z,1013.66
2022-10-29T01:43:11.929Z,1013.65
2022-10-29T01:44:11.859Z,1013.69
2022-10-29T01:45:11.849Z,1013.70
2022-10-29T01:46:11.835Z,1013.72
2022-10-29T01:47:11.820Z,1013.77
2022-10-29T01:48:11.815Z,1013.82
2022-10-29T01:49:11.804Z,1013.82
2022-10-29T01:50:11.795Z,1013.86
2022-10-29T01:51:11.780Z,1013.85
2022-10-29T01:52:11.779Z,1013.87
2022-10-29T01:53:11.769Z,1013.88
2022-10-29T01:54:11.758Z,1013.86
2022-10-29T01:55:11.730Z,1013.89
2022-10-29T01:56:11.713Z,1013.84
2022-10-29T01:57:11.710Z,1013.84
2022-10-29T01:58:11.810Z,1013.86
2022-10-29T01:59:18.370Z,1013.85
2022-10-29T02:00:12.681Z,1013.88
2022-10-29T02:01:11.806Z,1013.87
2022-10-29T02:02:11.671Z,1013.89
2022-10-29T02:03:11.654Z,1013.83
2022-10-29T02:04:11.633Z,1013.89
2022-10-29T02:05:11.618Z,1013.97
2022-10-29T02:06:11.610Z,1013.97
2022-10-29T02:07:11.602Z,1013.93
2022-10-29T02:08:11.621Z,1013.95
2022-10-29T02:09:11.580Z,1013.98
2022-10-29T02:10:11.564Z,1014.02
2022-10-29T02:11:11.565Z,1013.95
2022-10-29T02:12:11.540Z,1013.91
2022-10-29T02:13:11.615Z,1013.95
2022-10-29T02:14:11.532Z,1013.93
2022-10-29T02:15:11.506Z,1013.95
2022-10-29T02:16:11.493Z,1013.94
2022-10-29T02:17:11.492Z,1013.95
2022-10-29T02:18:11.479Z,1013.97
2022-10-29T02:19:11.486Z,1013.95
2022-10-29T02:20:11.510Z,1013.94
2022-10-29T02:21:11.460Z,1014.00
2022-10-29T02:22:11.427Z,1014.01
2022-10-29T02:23:11.426Z,1014.04
2022-10-29T02:24:11.424Z,1014.06
2022-10-29T02:25:11.471Z,1014.10
2022-10-29T02:26:11.386Z,1014.10
2022-10-29T02:27:11.381Z,1014.13
2022-10-29T02:28:11.383Z,1014.17
2022-10-29T02:29:11.350Z,1014.14
2022-10-29T02:30:11.354Z,1014.17
2022-10-29T02:31:11.326Z,1014.13
2022-10-29T02:32:11.310Z,1014.16
2022-10-29T02:33:11.323Z,1014.19
2022-10-29T02:34:11.305Z,1014.15
2022-10-29T02:35:11.294Z,1014.21
2022-10-29T02:36:11.297Z,1014.22
2022-10-29T02:37:11.280Z,1014.23
2022-10-29T02:38:11.290Z,1014.21
2022-10-29T02:39:11.266Z,1014.24
2022-10-29T02:40:11.224Z,1014.26
2022-10-29T02:41:11.228Z,1014.24
2022-10-29T02:42:11.200Z,1014.26
2022-10-29T02:43:11.261Z,1014.24
2022-10-29T02:44:11.188Z,1014.27
2022-10-29T02:45:11.172Z,1014.32
2022-10-29T02:46:11.160Z,1014.35
2022-10-29T02:47:11.158Z,1014.33
2022-10-29T02:48:11.136Z,1014.28
2022-10-29T02:49:11.128Z,1014.30
2022-10-29T02:50:11.115Z,1014.28
2022-10-29T02:51:11.109Z,1014.33
2022-10-29T02:52:11.113Z,1014.30
2022-10-29T02:53:11.101Z,1014.32
2022-10-29T02:54:11.073Z,1014.33
2022-10-29T02:55:11.066Z,1014.35
2022-10-29T02:56:11.044Z,1014.38
2022-10-29T02:57:11.031Z,1014.39
2022-10-29T02:58:11.078Z,1014.45
2022-10-29T02:59:12.010Z,1014.43
2022-10-29T03:00:10.999Z,1014.36
2022-10-29T03:01:11.039Z,1014.36
2022-10-29T03:02:11.103Z,1014.32
2022-10-29T03:03:10.986Z,1014.31
2022-10-29T03:04:10.967Z,1014.29
2022-10-29T03:05:10.948Z,1014.28
2022-10-29T03:06:10.933Z,1014.27
2022-10-29T03:07:10.924Z,1014.24
2022-10-29T03:08:10.911Z,1014.26
2022-10-29T03:09:10.918Z,1014.25
2022-10-29T03:10:10.895Z,1014.28
2022-10-29T03:11:10.880Z,1014.28
2022-10-29T03:12:10.864Z,1014.35
2022-10-29T03:13:10.854Z,1014.33
2022-10-29T03:14:10.854Z,1014.32
2022-10-29T03:15:10.849Z,1014.30
2022-10-29T03:16:10.821Z,1014.30
2022-10-29T03:17:10.819Z,1014.31
2022-10-29T03:18:10.801Z,1014.34
2022-10-29T03:19:10.794Z,1014.26
2022-10-29T03:20:10.801Z,1014.27
2022-10-29T03:21:10.771Z,1014.28
2022-10-29T03:22:10.753Z,1014.25
2022-10-29T03:23:10.746Z,1014.26
2022-10-29T03:24:10.758Z,1014.16
2022-10-29T03:25:10.735Z,1014.17
2022-10-29T03:26:10.740Z,1014.15
2022-10-29T03:27:10.707Z,1014.15
2022-10-29T03:28:10.691Z,1014.15
2022-10-29T03:29:10.684Z,1014.14
2022-10-29T03:30:10.668Z,1014.13
2022-10-29T03:31:10.672Z,1014.17
2022-10-29T03:32:10.687Z,1014.15
2022-10-29T03:33:10.642Z,1014.19
2022-10-29T03:34:10.623Z,1014.23
2022-10-29T03:35:10.611Z,1014.28
2022-10-29T03:36:10.760Z,1014.26
2022-10-29T03:37:10.600Z,1014.25
2022-10-29T03:38:10.578Z,1014.30
2022-10-29T03:39:10.564Z,1014.31
2022-10-29T03:40:10.556Z,1014.35
2022-10-29T03:41:10.829Z,1014.34
2022-10-29T03:42:10.524Z,1014.34
2022-10-29T03:43:10.541Z,1014.34
2022-10-29T03:44:10.513Z,1014.37
2022-10-29T03:45:10.514Z,1014.35
2022-10-29T03:46:10.489Z,1014.36
2022-10-29T03:47:10.483Z,1014.36
2022-10-29T03:48:10.472Z,1014.42
2022-10-29T03:49:11.223Z,1014.43
2022-10-29T03:50:10.451Z,1014.45
2022-10-29T03:51:10.433Z,1014.44
2022-10-29T03:52:10.418Z,1014.43
2022-10-29T03:53:10.418Z,1014.39
2022-10-29T03:54:10.404Z,1014.38
2022-10-29T03:55:10.417Z,1014.38
2022-10-29T03:56:10.369Z,1014.40
2022-10-29T03:57:10.370Z,1014.34
2022-10-29T03:58:10.346Z,1014.35
2022-10-29T04:00:10.336Z,1014.39
2022-10-29T04:01:10.453Z,1014.34
2022-10-29T04:02:10.513Z,1014.41
2022-10-29T04:03:10.311Z,1014.41
2022-10-29T04:04:10.302Z,1014.41
2022-10-29T04:05:10.311Z,1014.45
2022-10-29T04:06:10.277Z,1014.41
2022-10-29T04:07:10.255Z,1014.49
2022-10-29T04:08:10.264Z,1014.49
2022-10-29T04:09:10.245Z,1014.51
2022-10-29T04:10:10.227Z,1014.56
2022-10-29T04:11:10.218Z,1014.54
2022-10-29T04:12:10.200Z,1014.53
2022-10-29T04:13:10.228Z,1014.50
2022-10-29T04:14:10.200Z,1014.47
2022-10-29T04:15:10.178Z,1014.49
2022-10-29T04:16:10.184Z,1014.49
2022-10-29T04:17:10.791Z,1014.49
2022-10-29T04:18:10.170Z,1014.50
2022-10-29T04:19:10.139Z,1014.51
2022-10-29T04:20:21.069Z,1014.48
2022-10-29T04:24:18.805Z,1014.49
2022-10-29T04:28:42.437Z,1014.48
2022-10-29T04:29:11.017Z,1014.47
2022-10-29T04:30:10.094Z,1014.48
2022-10-29T04:31:09.989Z,1014.47
2022-10-29T04:32:09.976Z,1014.46
2022-10-29T04:33:09.968Z,1014.42
2022-10-29T04:34:09.956Z,1014.44
2022-10-29T04:35:09.954Z,1014.41
2022-10-29T04:36:09.964Z,1014.37
2022-10-29T04:37:09.929Z,1014.40
2022-10-29T04:38:09.911Z,1014.37
2022-10-29T04:39:09.914Z,1014.35
2022-10-29T04:40:09.895Z,1014.37
2022-10-29T04:41:09.905Z,1014.37
2022-10-29T04:42:09.993Z,1014.36
2022-10-29T04:43:09.855Z,1014.38
2022-10-29T04:44:09.846Z,1014.32
2022-10-29T04:45:09.834Z,1014.27
2022-10-29T04:46:09.823Z,1014.26
2022-10-29T04:47:09.832Z,1014.26
2022-10-29T04:48:09.821Z,1014.31
2022-10-29T04:49:09.882Z,1014.30
2022-10-29T04:50:09.783Z,1014.30
2022-10-29T04:51:09.778Z,1014.33
2022-10-29T04:52:10.740Z,1014.29
2022-10-29T04:53:09.745Z,1014.25
2022-10-29T04:54:09.742Z,1014.25
2022-10-29T04:55:09.720Z,1014.23
2022-10-29T04:56:09.731Z,1014.27
2022-10-29T04:57:09.698Z,1014.30
2022-10-29T04:58:09.692Z,1014.38
2022-10-29T04:59:09.672Z,1014.43
2022-10-29T05:00:11.021Z,1014.48
2022-10-29T05:01:09.811Z,1014.49
2022-10-29T05:02:09.643Z,1014.53
2022-10-29T05:03:09.635Z,1014.53
2022-10-29T05:04:09.618Z,1014.51
2022-10-29T05:05:09.613Z,1014.52
2022-10-29T05:06:09.663Z,1014.52
2022-10-29T05:07:09.606Z,1014.53
2022-10-29T05:08:09.583Z,1014.53
2022-10-29T05:09:09.568Z,1014.55
2022-10-29T05:10:09.574Z,1014.56
2022-10-29T05:11:09.569Z,1014.56
2022-10-29T05:12:09.533Z,1014.58
2022-10-29T05:13:09.553Z,1014.56
2022-10-29T05:14:09.513Z,1014.53
2022-10-29T05:15:09.507Z,1014.55
2022-10-29T05:16:09.523Z,1014.57
2022-10-29T05:17:09.479Z,1014.55
2022-10-29T05:18:09.483Z,1014.59
2022-10-29T05:19:09.451Z,1014.62
2022-10-29T05:20:09.441Z,1014.67
2022-10-29T05:21:09.429Z,1014.69
2022-10-29T05:22:09.426Z,1014.69
2022-10-29T05:23:09.408Z,1014.67
2022-10-29T05:24:09.398Z,1014.65
2022-10-29T05:25:09.389Z,1014.66
2022-10-29T05:26:09.385Z,1014.61
2022-10-29T05:27:09.383Z,1014.65
2022-10-29T05:28:09.359Z,1014.61
2022-10-29T05:29:09.345Z,1014.69
2022-10-29T05:30:09.339Z,1014.75
2022-10-29T05:31:09.321Z,1014.75
2022-10-29T05:32:09.327Z,1014.70
2022-10-29T05:33:09.320Z,1014.71
2022-10-29T05:34:09.294Z,1014.78
2022-10-29T05:35:09.272Z,1014.73
2022-10-29T05:36:09.264Z,1014.75
2022-10-29T05:37:09.250Z,1014.77
2022-10-29T05:38:09.256Z,1014.77
2022-10-29T05:39:09.232Z,1014.73
2022-10-29T05:40:09.244Z,1014.63
2022-10-29T05:41:09.223Z,1014.67
2022-10-29T05:42:09.198Z,1014.60
2022-10-29T05:43:09.231Z,1014.64
2022-10-29T05:44:09.196Z,1014.63
2022-10-29T05:45:09.169Z,1014.60
2022-10-29T05:46:09.155Z,1014.64
2022-10-29T05:47:09.137Z,1014.58
2022-10-29T05:48:09.173Z,1014.60
2022-10-29T05:49:09.136Z,1014.59
2022-10-29T05:50:09.109Z,1014.58
2022-10-29T05:51:09.103Z,1014.49
2022-10-29T05:52:09.116Z,1014.50
2022-10-29T05:53:09.084Z,1014.43
2022-10-29T05:54:09.066Z,1014.41
2022-10-29T05:55:09.064Z,1014.40
2022-10-29T05:56:09.043Z,1014.39
2022-10-29T05:57:09.040Z,1014.39
2022-10-29T05:58:09.016Z,1014.42
2022-10-29T05:59:09.011Z,1014.43
2022-10-29T06:00:09.004Z,1014.39
2022-10-29T06:01:09.004Z,1014.44
2022-10-29T06:02:09.158Z,1014.49
2022-10-29T06:03:09.028Z,1014.52
2022-10-29T06:04:08.959Z,1014.56
2022-10-29T06:05:08.977Z,1014.59
2022-10-29T06:06:09.122Z,1014.63
2022-10-29T06:07:08.918Z,1014.62
2022-10-29T06:08:08.930Z,1014.61
2022-10-29T06:09:08.898Z,1014.62
2022-10-29T06:10:08.889Z,1014.64
2022-10-29T06:11:08.881Z,1014.64
2022-10-29T06:12:08.881Z,1014.65
2022-10-29T06:13:08.848Z,1014.69
2022-10-29T06:14:08.840Z,1014.66
2022-10-29T06:15:08.833Z,1014.72
2022-10-29T06:16:08.829Z,1014.72
2022-10-29T06:17:08.806Z,1014.69
2022-10-29T06:18:08.814Z,1014.67
2022-10-29T06:19:08.780Z,1014.69
2022-10-29T06:20:08.783Z,1014.63
2022-10-29T06:21:08.778Z,1014.65
2022-10-29T06:22:08.756Z,1014.65
2022-10-29T06:23:08.746Z,1014.66
2022-10-29T06:24:08.735Z,1014.60
2022-10-29T06:25:08.724Z,1014.64
2022-10-29T06:26:08.729Z,1014.64
2022-10-29T06:27:08.705Z,1014.65
2022-10-29T06:28:08.692Z,1014.69
2022-10-29T06:29:08.683Z,1014.69
2022-10-29T06:30:08.670Z,1014.73
2022-10-29T06:31:08.667Z,1014.78
2022-10-29T06:32:08.640Z,1014.76
2022-10-29T06:33:08.629Z,1014.83
2022-10-29T06:34:08.623Z,1014.83
2022-10-29T06:35:08.635Z,1014.82
2022-10-29T06:36:08.613Z,1014.89
2022-10-29T06:37:08.591Z,1014.94
2022-10-29T06:38:11.924Z,1014.90
2022-10-29T06:39:08.564Z,1014.92
2022-10-29T06:40:08.556Z,1014.94
2022-10-29T06:41:08.544Z,1014.93
2022-10-29T06:42:08.549Z,1014.86
2022-10-29T06:43:08.526Z,1014.91
2022-10-29T06:44:08.517Z,1014.93
2022-10-29T06:45:08.496Z,1014.96
2022-10-29T06:46:08.505Z,1014.92
2022-10-29T06:47:08.473Z,1014.93
2022-10-29T06:48:08.473Z,1014.94
2022-10-29T06:49:08.446Z,1014.94
2022-10-29T06:50:08.450Z,1014.92
2022-10-29T06:51:08.477Z,1014.90
2022-10-29T06:52:08.425Z,1014.88
2022-10-29T06:53:08.408Z,1014.94
2022-10-29T06:54:08.407Z,1014.89
2022-10-29T06:55:08.381Z,1014.91
2022-10-29T06:56:08.370Z,1014.90
2022-10-29T06:57:08.370Z,1014.93
2022-10-29T06:58:08.366Z,1014.94
2022-10-29T06:59:08.360Z,1014.97
2022-10-29T07:00:09.287Z,1014.95
2022-10-29T07:01:08.342Z,1014.97
2022-10-29T07:02:08.353Z,1014.94
2022-10-29T07:03:08.298Z,1015.02
2022-10-29T07:04:08.304Z,1014.96
2022-10-29T07:05:08.277Z,1014.96
2022-10-29T07:06:08.282Z,1014.99
2022-10-29T07:07:08.255Z,1014.99
2022-10-29T07:08:08.258Z,1014.95
2022-10-29T07:09:08.231Z,1014.95
2022-10-29T07:10:08.241Z,1014.97
2022-10-29T07:11:08.206Z,1014.98
2022-10-29T07:12:08.198Z,1014.94
2022-10-29T07:13:08.183Z,1014.94
2022-10-29T07:14:08.171Z,1014.96
2022-10-29T07:15:08.164Z,1014.93
2022-10-29T07:16:08.162Z,1014.95
2022-10-29T07:17:08.139Z,1014.89
2022-10-29T07:18:08.136Z,1014.91
2022-10-29T07:19:08.125Z,1014.94
2022-10-29T07:20:08.113Z,1014.98
2022-10-29T07:21:08.110Z,1015.01
2022-10-29T07:22:08.087Z,1015.00
2022-10-29T07:23:08.080Z,1015.09
2022-10-29T07:24:08.072Z,1015.11
2022-10-29T07:25:08.051Z,1015.09
2022-10-29T07:26:08.052Z,1015.05
2022-10-29T07:27:08.072Z,1015.03
2022-10-29T07:28:08.901Z,1015.03
2022-10-29T07:29:08.007Z,1015.02
2022-10-29T07:30:07.999Z,1015.02
2022-10-29T07:31:07.997Z,1015.08
2022-10-29T07:32:07.979Z,1015.08
2022-10-29T07:33:07.965Z,1015.14
2022-10-29T07:34:07.962Z,1015.12
2022-10-29T07:35:07.936Z,1015.16
2022-10-29T07:36:07.930Z,1015.15
2022-10-29T07:37:08.797Z,1015.23
2022-10-29T07:38:10.725Z,1015.23
2022-10-29T07:39:07.895Z,1015.29
2022-10-29T07:40:07.885Z,1015.26
2022-10-29T07:41:07.929Z,1015.27
2022-10-29T07:42:07.864Z,1015.26
2022-10-29T07:43:07.881Z,1015.28
2022-10-29T07:44:07.846Z,1015.24
2022-10-29T07:45:07.845Z,1015.24
2022-10-29T07:46:07.825Z,1015.29
2022-10-29T07:47:07.807Z,1015.27
2022-10-29T07:48:07.819Z,1015.28
2022-10-29T07:49:07.793Z,1015.25
2022-10-29T07:50:07.774Z,1015.30
2022-10-29T07:51:07.766Z,1015.25
2022-10-29T07:52:07.754Z,1015.26
2022-10-29T07:53:07.742Z,1015.30
2022-10-29T07:54:10.875Z,1015.28
2022-10-29T07:55:08.715Z,1015.32
2022-10-29T07:56:07.712Z,1015.33
2022-10-29T07:57:07.693Z,1015.39
2022-10-29T07:58:07.688Z,1015.41
2022-10-29T07:59:07.686Z,1015.38
2022-10-29T08:00:07.666Z,1015.41
2022-10-29T08:01:07.716Z,1015.43
2022-10-29T08:02:07.671Z,1015.40
2022-10-29T08:03:07.635Z,1015.39
2022-10-29T08:04:07.637Z,1015.36
2022-10-29T08:05:07.608Z,1015.31
2022-10-29T08:06:07.608Z,1015.28
2022-10-29T08:07:07.583Z,1015.30
2022-10-29T08:08:07.597Z,1015.33
2022-10-29T08:09:07.560Z,1015.33
2022-10-29T08:10:07.562Z,1015.36
2022-10-29T08:11:07.533Z,1015.33
2022-10-29T08:12:07.536Z,1015.36
2022-10-29T08:13:07.515Z,1015.38
2022-10-29T08:14:07.507Z,1015.32
2022-10-29T08:15:07.492Z,1015.32
2022-10-29T08:16:07.504Z,1015.37
2022-10-29T08:17:07.475Z,1015.33
2022-10-29T08:18:07.466Z,1015.34
2022-10-29T08:19:07.451Z,1015.37
2022-10-29T08:20:07.466Z,1015.34
2022-10-29T08:21:07.449Z,1015.35
2022-10-29T08:22:07.434Z,1015.35
2022-10-29T08:23:07.408Z,1015.36
2022-10-29T08:24:07.403Z,1015.44
2022-10-29T08:25:07.381Z,1015.48
2022-10-29T08:26:07.397Z,1015.41
2022-10-29T08:27:07.377Z,1015.42
2022-10-29T08:28:07.389Z,1015.42
2022-10-29T08:29:07.341Z,1015.38
2022-10-29T08:30:07.336Z,1015.40
2022-10-29T08:31:07.318Z,1015.42
2022-10-29T08:32:07.340Z,1015.35
2022-10-29T08:33:07.309Z,1015.34
2022-10-29T08:34:11.099Z,1015.37
2022-10-29T08:35:07.267Z,1015.37
2022-10-29T08:36:07.270Z,1015.38
2022-10-29T08:37:07.263Z,1015.35
2022-10-29T08:38:07.241Z,1015.34
2022-10-29T08:39:07.231Z,1015.35
2022-10-29T08:40:07.221Z,1015.31
2022-10-29T08:41:07.233Z,1015.34
2022-10-29T08:42:07.200Z,1015.39
2022-10-29T08:43:07.201Z,1015.41
2022-10-29T08:44:07.185Z,1015.43
2022-10-29T08:45:07.171Z,1015.46
2022-10-29T08:46:07.160Z,1015.47
2022-10-29T08:47:08.013Z,1015.46
2022-10-29T08:48:07.146Z,1015.47
2022-10-29T08:49:07.120Z,1015.45
2022-10-29T08:50:07.109Z,1015.43
2022-10-29T08:51:07.114Z,1015.45
2022-10-29T08:52:07.089Z,1015.46
2022-10-29T08:53:24.004Z,1015.46
2022-10-29T08:54:29.998Z,1015.43
2022-10-29T08:55:08.058Z,1015.42
2022-10-29T08:56:07.051Z,1015.51
2022-10-29T08:57:07.028Z,1015.42
2022-10-29T08:58:07.033Z,1015.45
2022-10-29T08:59:07.035Z,1015.50
2022-10-29T09:01:07.040Z,1015.43
2022-10-29T09:02:07.044Z,1015.36
2022-10-29T09:03:06.964Z,1015.38
2022-10-29T09:04:06.942Z,1015.44
2022-10-29T09:05:06.958Z,1015.47
2022-10-29T09:06:06.925Z,1015.45
2022-10-29T09:07:06.917Z,1015.49
2022-10-29T09:08:06.905Z,1015.46
2022-10-29T09:09:06.888Z,1015.49
2022-10-29T09:10:06.925Z,1015.48
2022-10-29T09:11:06.878Z,1015.49
2022-10-29T09:12:06.872Z,1015.46
2022-10-29T09:13:06.907Z,1015.45
2022-10-29T09:14:07.839Z,1015.43
2022-10-29T09:15:06.830Z,1015.42
2022-10-29T09:16:06.831Z,1015.42
2022-10-29T09:17:08.288Z,1015.46
2022-10-29T09:18:06.795Z,1015.47
2022-10-29T09:19:06.774Z,1015.43
2022-10-29T09:20:06.769Z,1015.46
2022-10-29T09:21:06.766Z,1015.49
2022-10-29T09:22:06.742Z,1015.47
2022-10-29T09:23:06.735Z,1015.51
2022-10-29T09:24:06.721Z,1015.46
2022-10-29T09:25:06.715Z,1015.49
2022-10-29T09:26:06.699Z,1015.56
2022-10-29T09:27:09.756Z,1015.56
2022-10-29T09:28:06.682Z,1015.55
2022-10-29T09:29:06.668Z,1015.58
2022-10-29T09:30:06.656Z,1015.59
2022-10-29T09:31:06.639Z,1015.62
2022-10-29T09:32:06.639Z,1015.63
2022-10-29T09:33:06.615Z,1015.62
2022-10-29T09:34:06.603Z,1015.60
2022-10-29T09:35:06.702Z,1015.60
2022-10-29T09:36:06.580Z,1015.63
2022-10-29T09:37:06.590Z,1015.58
2022-10-29T09:38:06.595Z,1015.61
2022-10-29T09:39:06.583Z,1015.56
2022-10-29T09:40:06.615Z,1015.52
2022-10-29T09:41:06.583Z,1015.56
2022-10-29T09:42:06.592Z,1015.52
2022-10-29T09:43:06.524Z,1015.50
2022-10-29T09:44:06.522Z,1015.47
2022-10-29T09:45:06.539Z,1015.48
2022-10-29T09:46:06.501Z,1015.47
2022-10-29T09:47:09.642Z,1015.47
2022-10-29T09:48:06.493Z,1015.52
2022-10-29T09:50:08.751Z,1015.44
2022-10-29T09:51:06.472Z,1015.42
2022-10-29T09:52:06.420Z,1015.41
2022-10-29T09:53:06.427Z,1015.37
2022-10-29T09:54:06.469Z,1015.37
2022-10-29T09:55:06.378Z,1015.38
2022-10-29T09:56:06.356Z,1015.40
2022-10-29T09:57:06.357Z,1015.39
2022-10-29T09:58:06.342Z,1015.41
2022-10-29T09:59:06.356Z,1015.34
2022-10-29T10:00:06.329Z,1015.37
2022-10-29T10:01:06.310Z,1015.32
2022-10-29T10:02:06.454Z,1015.28
2022-10-29T10:03:06.347Z,1015.33
2022-10-29T10:04:06.279Z,1015.30
2022-10-29T10:05:06.256Z,1015.27
2022-10-29T10:06:06.263Z,1015.21
2022-10-29T10:07:06.241Z,1015.24
2022-10-29T10:08:06.228Z,1015.20
2022-10-29T10:09:06.218Z,1015.21
2022-10-29T10:10:06.222Z,1015.28
2022-10-29T10:11:06.198Z,1015.33
2022-10-29T10:12:06.195Z,1015.31
2022-10-29T10:13:06.183Z,1015.33
2022-10-29T10:14:06.167Z,1015.32
2022-10-29T10:15:06.146Z,1015.30
2022-10-29T10:16:06.205Z,1015.27
2022-10-29T10:17:06.131Z,1015.27
2022-10-29T10:18:06.119Z,1015.25
2022-10-29T10:19:06.109Z,1015.24
2022-10-29T10:20:06.096Z,1015.23
2022-10-29T10:21:06.090Z,1015.22
2022-10-29T10:22:06.102Z,1015.19
2022-10-29T10:23:06.868Z,1015.19
2022-10-29T10:24:06.060Z,1015.23
2022-10-29T10:25:06.104Z,1015.17
2022-10-29T10:26:06.065Z,1015.16
2022-10-29T10:27:06.028Z,1015.10
2022-10-29T10:28:06.025Z,1015.11
2022-10-29T10:29:05.992Z,1015.05
2022-10-29T10:30:05.983Z,1014.98
2022-10-29T10:31:05.982Z,1014.95
2022-10-29T10:32:05.970Z,1014.98
2022-10-29T10:33:05.952Z,1015.00
2022-10-29T10:34:05.950Z,1014.97
2022-10-29T10:35:05.936Z,1014.89
2022-10-29T10:36:05.937Z,1014.90
2022-10-29T10:37:05.964Z,1014.94
2022-10-29T10:38:05.897Z,1014.96
2022-10-29T10:39:05.886Z,1014.96
2022-10-29T10:40:05.893Z,1014.95
2022-10-29T10:41:05.862Z,1014.89
2022-10-29T10:42:05.867Z,1014.92
2022-10-29T10:43:08.288Z,1014.89
2022-10-29T10:44:05.851Z,1014.97
2022-10-29T10:45:05.821Z,1014.92
2022-10-29T10:46:05.802Z,1014.91
2022-10-29T10:47:06.481Z,1014.97
2022-10-29T10:48:05.909Z,1015.01
2022-10-29T10:49:05.789Z,1014.96
2022-10-29T10:50:05.771Z,1015.02
2022-10-29T10:51:05.759Z,1015.01
2022-10-29T10:52:05.743Z,1015.02
2022-10-29T10:53:05.745Z,1015.06
2022-10-29T10:54:05.746Z,1015.10
2022-10-29T10:55:05.714Z,1015.10
2022-10-29T10:56:05.702Z,1015.10
2022-10-29T10:57:05.708Z,1015.07
2022-10-29T10:58:05.672Z,1015.08
2022-10-29T10:59:05.686Z,1015.02
2022-10-29T11:00:05.657Z,1015.03
2022-10-29T11:01:05.730Z,1015.03
2022-10-29T11:02:05.710Z,1015.05
2022-10-29T11:03:05.629Z,1015.04
2022-10-29T11:04:05.625Z,1015.04
2022-10-29T11:05:07.945Z,1014.99
2022-10-29T11:06:05.615Z,1014.96
2022-10-29T11:07:05.589Z,1014.96
2022-10-29T11:08:05.573Z,1015.00
2022-10-29T11:09:05.576Z,1014.97
2022-10-29T11:10:05.557Z,1014.97
2022-10-29T11:11:05.552Z,1015.01
2022-10-29T11:12:05.525Z,1014.97
2022-10-29T11:13:05.515Z,1014.89
2022-10-29T11:14:05.504Z,1014.91
2022-10-29T11:15:05.498Z,1014.88
2022-10-29T11:16:05.495Z,1014.85
2022-10-29T11:17:05.485Z,1014.80
2022-10-29T11:18:05.531Z,1014.78
2022-10-29T11:19:05.449Z,1014.78
2022-10-29T11:20:05.430Z,1014.73
2022-10-29T11:21:05.439Z,1014.72
2022-10-29T11:22:05.415Z,1014.70
2022-10-29T11:23:05.404Z,1014.72
2022-10-29T11:24:05.405Z,1014.66
2022-10-29T11:25:05.394Z,1014.69
2022-10-29T11:26:05.390Z,1014.58
2022-10-29T11:27:05.361Z,1014.60
2022-10-29T11:28:05.359Z,1014.56
2022-10-29T11:29:05.367Z,1014.53
2022-10-29T11:30:05.340Z,1014.61
2022-10-29T11:31:05.322Z,1014.60
2022-10-29T11:32:05.331Z,1014.59
2022-10-29T11:33:05.340Z,1014.57
2022-10-29T11:34:05.288Z,1014.56
2022-10-29T11:35:05.287Z,1014.54
2022-10-29T11:36:05.261Z,1014.51
2022-10-29T11:37:05.268Z,1014.47
2022-10-29T11:38:05.267Z,1014.46
2022-10-29T11:39:05.230Z,1014.49
2022-10-29T11:40:05.261Z,1014.46
2022-10-29T11:41:05.222Z,1014.47
2022-10-29T11:42:05.218Z,1014.47
2022-10-29T11:43:08.523Z,1014.49
2022-10-29T11:44:05.167Z,1014.45
2022-10-29T11:45:05.169Z,1014.48
2022-10-29T11:46:05.151Z,1014.48
2022-10-29T11:47:05.161Z,1014.53
2022-10-29T11:48:05.187Z,1014.51
2022-10-29T11:49:05.142Z,1014.47
2022-10-29T11:50:05.115Z,1014.46
2022-10-29T11:51:05.100Z,1014.47
2022-10-29T11:52:05.110Z,1014.49
2022-10-29T11:53:05.077Z,1014.47
2022-10-29T11:54:05.063Z,1014.46
2022-10-29T11:55:05.056Z,1014.44
2022-10-29T11:56:05.045Z,1014.39
2022-10-29T11:57:05.039Z,1014.36
2022-10-29T11:58:05.046Z,1014.36
2022-10-29T11:59:05.006Z,1014.30
2022-10-29T12:00:04.990Z,1014.32
2022-10-29T12:01:04.993Z,1014.33
2022-10-29T12:02:05.056Z,1014.30
2022-10-29T12:03:04.988Z,1014.29
2022-10-29T12:04:04.995Z,1014.27
2022-10-29T12:05:04.980Z,1014.32
2022-10-29T12:06:04.927Z,1014.31
2022-10-29T12:07:04.927Z,1014.29
2022-10-29T12:08:04.921Z,1014.31
2022-10-29T12:09:04.893Z,1014.26
2022-10-29T12:10:04.878Z,1014.26
2022-10-29T12:11:04.871Z,1014.18
2022-10-29T12:12:04.862Z,1014.20
2022-10-29T12:13:04.852Z,1014.18
2022-10-29T12:14:04.854Z,1014.17